Flight Track Log - Related Links

Times and Time Zones

All times are in EDT time to prevent confusion due to time zone crossing. See the KAL61 flight status page for this flight to view local times or setup timezone preferences in your user account.

Time Position Orientation Groundspeed Altitude Reporting Facility
EDT Latitude Longitude Course Direction KTS MPH feet Rate Location/Type
Wed 09:10:00 AM 37.6876 128.7624 142° Southeast  Level FlightAware Approximate
Wed 09:11:00 AM 37.6083 128.9146 119° Southeast  Level FlightAware Approximate
Wed 09:12:00 AM 37.5337 129.0729 121° Southeast  Level FlightAware Approximate
Wed 09:13:00 AM 37.4586 129.2306 121° Southeast  Level FlightAware Approximate
Wed 09:14:00 AM 37.3873 129.3909 118° Southeast  Level FlightAware Approximate
Wed 09:15:00 AM 37.3109 129.5473 122° Southeast  Level FlightAware Approximate
Wed 09:16:00 AM 37.2340 129.7031 122° Southeast  Level FlightAware Approximate
Wed 09:17:00 AM 37.1568 129.8586 122° Southeast  Level FlightAware Approximate
Wed 09:18:00 AM 37.0794 130.0138 122° Southeast  Level FlightAware Approximate
Wed 09:19:00 AM 37.0019 130.1687 122° Southeast  Level FlightAware Approximate
Wed 09:20:00 AM 36.9241 130.3233 122° Southeast  Level FlightAware Approximate
Wed 09:21:00 AM 36.8461 130.4775 122° Southeast  Level FlightAware Approximate
Wed 09:22:00 AM 36.7679 130.6314 122° Southeast  Level FlightAware Approximate
Wed 09:23:00 AM 36.6899 130.7853 122° Southeast  Level FlightAware Approximate
Wed 09:24:00 AM 36.6118 130.9390 122° Southeast  Level FlightAware Approximate
Wed 09:25:00 AM 36.5335 131.0923 122° Southeast  Level FlightAware Approximate
Wed 09:26:00 AM 36.4550 131.2453 122° Southeast  Level FlightAware Approximate
Wed 09:27:00 AM 36.3763 131.3981 123° Southeast  Level FlightAware Approximate
Wed 09:28:00 AM 36.3617 131.5757 92° East  Level FlightAware Approximate
Wed 09:29:00 AM 36.3559 131.7568 92° East  Level FlightAware Approximate
Wed 09:30:00 AM 36.3497 131.9378 92° East  Level FlightAware Approximate
Wed 09:31:00 AM 36.3433 132.1188 92° East  Level FlightAware Approximate
Wed 09:32:00 AM 36.3366 132.2998 93° East  Level FlightAware Approximate
Wed 09:33:00 AM 36.3297 132.4808 93° East  Level FlightAware Approximate
Wed 09:34:00 AM 36.3224 132.6617 93° East  Level FlightAware Approximate
Wed 09:35:00 AM 36.3149 132.8426 93° East  Level FlightAware Approximate
Wed 09:36:00 AM 36.3071 133.0235 93° East  Level FlightAware Approximate
Wed 09:37:00 AM 36.2991 133.2043 93° East  Level FlightAware Approximate
Wed 09:38:00 AM 36.2907 133.3851 93° East  Level FlightAware Approximate
Wed 09:39:00 AM 36.2821 133.5658 93° East  Level FlightAware Approximate
Wed 09:40:00 AM 36.2733 133.7465 93° East  Level FlightAware Approximate
Wed 09:41:00 AM 36.2641 133.9272 94° East  Level FlightAware Approximate
Wed 09:42:00 AM 36.2547 134.1078 94° East  Level FlightAware Approximate
Wed 09:43:00 AM 36.2450 134.2883 94° East  Level FlightAware Approximate
Wed 09:44:00 AM 36.2351 134.4689 94° East  Level FlightAware Approximate
Wed 09:45:00 AM 36.2480 134.6486 83° East  Level FlightAware Approximate
Wed 09:46:00 AM 36.2654 134.8283 83° East  Level FlightAware Approximate
Wed 09:47:00 AM 36.2825 135.0081 83° East  Level FlightAware Approximate
Wed 09:48:00 AM 36.2966 135.1883 84° East  Level FlightAware Approximate
Wed 09:49:00 AM 36.3103 135.3686 85° East  Level FlightAware Approximate
Wed 09:50:00 AM 36.3237 135.5490 85° East  Level FlightAware Approximate
Wed 09:51:00 AM 36.3369 135.7294 85° East  Level FlightAware Approximate
Wed 09:52:00 AM 36.3498 135.9099 85° East  Level FlightAware Approximate
Wed 09:53:00 AM 36.3624 136.0904 85° East  Level FlightAware Approximate
Wed 09:54:00 AM 36.3747 136.2710 85° East  Level FlightAware Approximate
Wed 09:55:00 AM 36.3886 136.4514 83° East  Level FlightAware Approximate
Wed 09:56:00 AM 36.4070 136.6313 83° East  Level FlightAware Approximate
Wed 09:57:00 AM 36.4252 136.8112 83° East  Level FlightAware Approximate
Wed 09:58:00 AM 36.4430 136.9913 83° East  Level FlightAware Approximate
Wed 09:59:00 AM 36.4606 137.1714 83° East  Level FlightAware Approximate
Wed 10:00:00 AM 36.4779 137.3516 83° East  Level FlightAware Approximate
Wed 10:01:00 AM 36.4949 137.5319 83° East  Level FlightAware Approximate
Wed 10:02:00 AM 36.5117 137.7122 83° East  Level FlightAware Approximate
Wed 10:03:00 AM 36.5278 137.8885 83° East  Level FlightAware Approximate
Wed 10:04:00 AM 36.5437 138.0648 84° East  Level FlightAware Approximate
Wed 10:05:00 AM 36.5593 138.2413 84° East  Level FlightAware Approximate
Wed 10:06:00 AM 36.5746 138.4178 84° East  Level FlightAware Approximate
Wed 10:07:00 AM 36.5897 138.5938 84° East  Level FlightAware Approximate
Wed 10:08:00 AM 36.6047 138.7698 84° East  Level FlightAware Approximate
Wed 10:09:00 AM 36.6203 138.9458 84° East  Level FlightAware Approximate
Wed 10:10:00 AM 36.6355 139.1219 84° East  Level FlightAware Approximate
Wed 10:11:00 AM 36.6505 139.2981 84° East  Level FlightAware Approximate
Wed 10:12:00 AM 36.6653 139.4743 84° East  Level FlightAware Approximate
Wed 10:13:00 AM 36.6797 139.6506 84° East  Level FlightAware Approximate
Wed 10:14:00 AM 36.6940 139.8270 84° East  Level FlightAware Approximate
Wed 10:15:00 AM 36.7079 140.0034 84° East  Level FlightAware Approximate
Wed 10:16:00 AM 36.7216 140.1799 84° East  Level FlightAware Approximate
Wed 10:17:00 AM 36.7354 140.3564 84° East  Level FlightAware Approximate
Wed 10:18:00 AM 36.7509 140.5327 84° East  Level FlightAware Approximate
Wed 10:19:00 AM 36.7662 140.7091 84° East  Level FlightAware Approximate
Wed 10:20:00 AM 36.7812 140.8855 84° East  Level FlightAware Approximate
Wed 10:21:00 AM 36.7959 141.0621 84° East  Level FlightAware Approximate
Wed 10:22:00 AM 36.8104 141.2387 84° East  Level FlightAware Approximate
Wed 10:23:00 AM 36.8243 141.4153 84° East  Level FlightAware Approximate
Wed 10:24:00 AM 36.8377 141.5921 85° East  Level FlightAware Approximate
Wed 10:25:00 AM 36.8508 141.7690 85° East  Level FlightAware Approximate
Wed 10:26:00 AM 36.8637 141.9459 85° East  Level FlightAware Approximate
Wed 10:27:00 AM 36.8763 142.1229 85° East  Level FlightAware Approximate
Wed 10:28:00 AM 36.8886 142.2999 85° East  Level FlightAware Approximate
Wed 10:29:00 AM 36.9007 142.4770 85° East  Level FlightAware Approximate
Wed 10:30:00 AM 36.9134 142.6540 85° East  Level FlightAware Approximate
Wed 10:31:00 AM 36.9258 142.8311 85° East  Level FlightAware Approximate
Wed 10:32:00 AM 36.9380 143.0083 85° East  Level FlightAware Approximate
Wed 10:33:00 AM 36.9498 143.1855 85° East  Level FlightAware Approximate
Wed 10:34:00 AM 36.9614 143.3628 85° East  Level FlightAware Approximate
Wed 10:35:00 AM 36.9728 143.5401 85° East  Level FlightAware Approximate
Wed 10:36:00 AM 36.9839 143.7175 85° East  Level FlightAware Approximate
Wed 10:37:00 AM 36.9947 143.8950 86° East  Level FlightAware Approximate
Wed 10:38:00 AM 37.0103 144.0717 82° East  Level FlightAware Approximate
Wed 10:39:00 AM 37.0307 144.2479 82° East  Level FlightAware Approximate
Wed 10:40:00 AM 37.0508 144.4242 82° East  Level FlightAware Approximate
Wed 10:41:00 AM 37.0707 144.6006 82° East  Level FlightAware Approximate
Wed 10:42:00 AM 37.0903 144.7770 82° East  Level FlightAware Approximate
Wed 10:43:00 AM 37.1097 144.9536 82° East  Level FlightAware Approximate
Wed 10:44:00 AM 37.1287 145.1302 82° East  Level FlightAware Approximate
Wed 10:45:00 AM 37.1476 145.3070 82° East  Level FlightAware Approximate
Wed 10:46:00 AM 37.1661 145.4838 82° East  Level FlightAware Approximate
Wed 10:47:00 AM 37.1879 145.6591 58° Northeast  Level FlightAware Approximate
Wed 10:48:00 AM 37.2632 145.8105 58° Northeast  Level FlightAware Approximate
Wed 10:49:00 AM 37.3384 145.9621 58° Northeast  Level FlightAware Approximate
Wed 10:50:00 AM 37.4134 146.1141 58° Northeast  Level FlightAware Approximate
Wed 10:51:00 AM 37.4882 146.2664 58° Northeast  Level FlightAware Approximate
Wed 10:52:00 AM 37.5628 146.4189 58° Northeast  Level FlightAware Approximate
Wed 10:53:00 AM 37.6371 146.5718 58° Northeast  Level FlightAware Approximate
Wed 10:54:00 AM 37.7113 146.7250 58° Northeast  Level FlightAware Approximate
Wed 10:55:00 AM 37.7853 146.8784 59° Northeast  Level FlightAware Approximate
Wed 10:56:00 AM 37.8591 147.0322 59° Northeast  Level FlightAware Approximate
Wed 10:57:00 AM 37.9327 147.1863 59° Northeast  Level FlightAware Approximate
Wed 10:58:00 AM 38.0061 147.3407 59° Northeast  Level FlightAware Approximate
Wed 10:59:00 AM 38.0793 147.4955 59° Northeast  Level FlightAware Approximate
Wed 11:00:00 AM 38.1523 147.6505 59° Northeast  Level FlightAware Approximate
Wed 11:01:00 AM 38.2255 147.8055 59° Northeast  Level FlightAware Approximate
Wed 11:02:00 AM 38.2989 147.9605 59° Northeast  Level FlightAware Approximate
Wed 11:03:00 AM 38.3720 148.1159 59° Northeast  Level FlightAware Approximate
Wed 11:04:00 AM 38.4450 148.2716 59° Northeast  Level FlightAware Approximate
Wed 11:05:00 AM 38.5177 148.4276 59° Northeast  Level FlightAware Approximate
Wed 11:06:00 AM 38.5902 148.5839 59° Northeast  Level FlightAware Approximate
Wed 11:07:00 AM 38.6626 148.7405 59° Northeast  Level FlightAware Approximate
Wed 11:08:00 AM 38.7347 148.8974 59° Northeast  Level FlightAware Approximate
Wed 11:09:00 AM 38.8066 149.0547 60° Northeast  Level FlightAware Approximate
Wed 11:10:00 AM 38.8783 149.2123 60° Northeast  Level FlightAware Approximate
Wed 11:11:00 AM 38.9498 149.3702 60° Northeast  Level FlightAware Approximate
Wed 11:12:00 AM 39.0210 149.5284 60° Northeast  Level FlightAware Approximate
Wed 11:13:00 AM 39.0921 149.6869 60° Northeast  Level FlightAware Approximate
Wed 11:14:00 AM 39.1575 149.8488 73° East  Level FlightAware Approximate
Wed 11:15:00 AM 39.1982 150.0245 73° East  Level FlightAware Approximate
Wed 11:16:00 AM 39.2387 150.2003 73° East  Level FlightAware Approximate
Wed 11:17:00 AM 39.2789 150.3764 74° East  Level FlightAware Approximate
Wed 11:18:00 AM 39.3188 150.5527 74° East  Level FlightAware Approximate
Wed 11:19:00 AM 39.3585 150.7291 74° East  Level FlightAware Approximate
Wed 11:20:00 AM 39.3979 150.9058 74° East  Level FlightAware Approximate
Wed 11:21:00 AM 39.4371 151.0827 74° East  Level FlightAware Approximate
Wed 11:22:00 AM 39.4759 151.2598 74° East  Level FlightAware Approximate
Wed 11:23:00 AM 39.5145 151.4370 74° East  Level FlightAware Approximate
Wed 11:24:00 AM 39.5529 151.6145 74° East  Level FlightAware Approximate
Wed 11:25:00 AM 39.5909 151.7921 74° East  Level FlightAware Approximate
Wed 11:26:00 AM 39.6287 151.9700 75° East  Level FlightAware Approximate
Wed 11:27:00 AM 39.6663 152.1481 75° East  Level FlightAware Approximate
Wed 11:28:00 AM 39.7017 152.3269 76° East  Level FlightAware Approximate
Wed 11:29:00 AM 39.7369 152.5060 76° East  Level FlightAware Approximate
Wed 11:30:00 AM 39.7718 152.6852 76° East  Level FlightAware Approximate
Wed 11:31:00 AM 39.8064 152.8646 76° East  Level FlightAware Approximate
Wed 11:32:00 AM 39.8407 153.0442 76° East  Level FlightAware Approximate
Wed 11:33:00 AM 39.8748 153.2240 76° East  Level FlightAware Approximate
Wed 11:34:00 AM 39.9086 153.4039 76° East  Level FlightAware Approximate
Wed 11:35:00 AM 39.9421 153.5840 76° East  Level FlightAware Approximate
Wed 11:36:00 AM 39.9753 153.7643 76° East  Level FlightAware Approximate
Wed 11:37:00 AM 40.0083 153.9448 77° East  Level FlightAware Approximate
Wed 11:38:00 AM 40.0414 154.1253 76° East  Level FlightAware Approximate
Wed 11:39:00 AM 40.0756 154.3055 76° East  Level FlightAware Approximate
Wed 11:40:00 AM 40.1096 154.4859 76° East  Level FlightAware Approximate
Wed 11:41:00 AM 40.1434 154.6665 76° East  Level FlightAware Approximate
Wed 11:42:00 AM 40.1768 154.8473 76° East  Level FlightAware Approximate
Wed 11:43:00 AM 40.2100 155.0282 76° East  Level FlightAware Approximate
Wed 11:44:00 AM 40.2428 155.2093 77° East  Level FlightAware Approximate
Wed 11:45:00 AM 40.2754 155.3906 77° East  Level FlightAware Approximate
Wed 11:46:00 AM 40.3078 155.5721 77° East  Level FlightAware Approximate
Wed 11:47:00 AM 40.3398 155.7537 77° East  Level FlightAware Approximate
Wed 11:48:00 AM 40.3715 155.9355 77° East  Level FlightAware Approximate
Wed 11:49:00 AM 40.4030 156.1175 77° East  Level FlightAware Approximate
Wed 11:50:00 AM 40.4342 156.2997 77° East  Level FlightAware Approximate
Wed 11:51:00 AM 40.4650 156.4820 77° East  Level FlightAware Approximate
Wed 11:52:00 AM 40.4956 156.6645 78° East  Level FlightAware Approximate
Wed 11:53:00 AM 40.5260 156.8471 78° East  Level FlightAware Approximate
Wed 11:54:00 AM 40.5560 157.0300 78° East  Level FlightAware Approximate
Wed 11:55:00 AM 40.5857 157.2129 78° East  Level FlightAware Approximate
Wed 11:56:00 AM 40.6152 157.3961 78° East  Level FlightAware Approximate
Wed 11:57:00 AM 40.6443 157.5794 78° East  Level FlightAware Approximate
Wed 11:58:00 AM 40.6732 157.7628 78° East  Level FlightAware Approximate
Wed 11:59:00 AM 40.7018 157.9465 78° East  Level FlightAware Approximate
Wed 12:00:00 PM 40.7301 158.1302 78° East  Level FlightAware Approximate
Wed 12:01:00 PM 40.7581 158.3142 79° East  Level FlightAware Approximate
Wed 12:02:00 PM 40.7858 158.4982 79° East  Level FlightAware Approximate
Wed 12:03:00 PM 40.8132 158.6825 79° East  Level FlightAware Approximate
Wed 12:04:00 PM 40.8403 158.8669 79° East  Level FlightAware Approximate
Wed 12:05:00 PM 40.8671 159.0514 79° East  Level FlightAware Approximate
Wed 12:06:00 PM 40.8936 159.2361 79° East  Level FlightAware Approximate
Wed 12:07:00 PM 40.9199 159.4209 79° East  Level FlightAware Approximate
Wed 12:08:00 PM 40.9458 159.6059 79° East  Level FlightAware Approximate
Wed 12:09:00 PM 40.9714 159.7911 80° East  Level FlightAware Approximate
Wed 12:10:00 PM 40.9968 159.9763 80° East  Level FlightAware Approximate
Wed 12:11:00 PM 41.0067 160.1641 87° East  Level FlightAware Approximate
Wed 12:12:00 PM 41.0141 160.3522 87° East  Level FlightAware Approximate
Wed 12:13:00 PM 41.0213 160.5403 87° East  Level FlightAware Approximate
Wed 12:14:00 PM 41.0280 160.7285 87° East  Level FlightAware Approximate
Wed 12:15:00 PM 41.0345 160.9167 87° East  Level FlightAware Approximate
Wed 12:16:00 PM 41.0407 161.1050 87° East  Level FlightAware Approximate
Wed 12:17:00 PM 41.0466 161.2933 88° East  Level FlightAware Approximate
Wed 12:18:00 PM 41.0522 161.4816 88° East  Level FlightAware Approximate
Wed 12:19:00 PM 41.0575 161.6700 88° East  Level FlightAware Approximate
Wed 12:20:00 PM 41.0625 161.8584 88° East  Level FlightAware Approximate
Wed 12:21:00 PM 41.0671 162.0468 88° East  Level FlightAware Approximate
Wed 12:22:00 PM 41.0715 162.2352 88° East  Level FlightAware Approximate
Wed 12:23:00 PM 41.0755 162.4237 88° East  Level FlightAware Approximate
Wed 12:23:59 PM 41.1000 165.0333 90° East 588 677 33,000  Level Oakland Oceanic (ODAPS)
Wed 12:24:00 PM 41.0792 162.6122 88° East  Level FlightAware Approximate
Wed 12:24:16 PM 41.1000 165.0000 90° East 590 679 33,000  Level Oakland Oceanic (ODAPS)
Wed 12:25:00 PM 41.0827 162.8007 89° East  Level FlightAware Approximate
Wed 12:26:00 PM 41.0858 162.9892 89° East  Level FlightAware Approximate
Wed 12:27:00 PM 41.0886 163.1778 89° East  Level FlightAware Approximate
Wed 12:28:00 PM 41.0911 163.3664 89° East  Level FlightAware Approximate
Wed 12:29:00 PM 41.0933 163.5549 89° East  Level FlightAware Approximate
Wed 12:30:00 PM 41.0948 166.3056 91° East 590 679 33,000  Level FlightAware Transoceanic
Wed 12:31:00 PM 41.0925 166.5231 91° East 590 679 33,000  Level FlightAware Transoceanic
Wed 12:32:00 PM 41.0897 166.7407 91° East 590 679 33,000  Level FlightAware Transoceanic
Wed 12:33:00 PM 41.0866 166.9582 91° East 590 679 33,000 690 Level FlightAware Transoceanic
Wed 12:33:27 PM 41.0833 167.0833 91° East 603 694 34,000  Climbing Oakland Oceanic (ODAPS)
Wed 12:34:00 PM 41.0831 167.1757 91° East 590 679 33,000 -645 Descending FlightAware Transoceanic
Wed 12:35:00 PM 41.0792 167.3932 91° East 590 679 33,000  Level FlightAware Transoceanic
Wed 12:36:00 PM 41.0748 167.6106 92° East 590 679 33,000  Level FlightAware Transoceanic
Wed 12:37:00 PM 41.0700 167.8280 92° East 590 679 33,000  Level FlightAware Transoceanic
Wed 12:38:00 PM 41.0649 168.0454 92° East 590 679 33,000 500 Level FlightAware Transoceanic
Wed 12:39:00 PM 41.0540 168.4304 92° East 603 694 34,000 500 Climbing FlightAware Transoceanic
Wed 12:40:00 PM 41.0476 168.6548 92° East 603 694 34,000  Level FlightAware Transoceanic
Wed 12:41:00 PM 41.0407 168.8791 92° East 603 694 34,000  Level FlightAware Transoceanic
Wed 12:42:00 PM 41.0335 169.1034 93° East 603 694 34,000  Level FlightAware Transoceanic
Wed 12:43:00 PM 41.0257 169.3276 93° East 603 694 34,000  Level FlightAware Transoceanic
Wed 12:44:00 PM 41.0176 169.5518 93° East 603 694 34,000  Level FlightAware Transoceanic
Wed 12:45:00 PM 41.0090 169.7759 93° East 603 694 34,000  Level FlightAware Transoceanic
Wed 12:46:00 PM 41.0000 170.0000 87° East 603 694 34,000  Level FlightAware Transoceanic
Wed 12:47:00 PM 41.0079 170.1848 87° East 603 694 34,000 857 Level FlightAware Transoceanic
Wed 12:47:10 PM 41.0000 170.0000 87° East 551 634 35,000 2,308 Climbing Oakland Oceanic (ODAPS)
Wed 12:47:26 PM 41.0000 170.1000 87° East 538 619 35,000 -1,200 Level Oakland Oceanic (ODAPS)
Wed 12:48:00 PM 41.0154 170.3696 87° East 603 694 34,000 -638 Descending FlightAware Transoceanic
Wed 12:49:00 PM 41.0227 170.5545 87° East 603 694 34,000  Level FlightAware Transoceanic
Wed 12:50:00 PM 41.0297 170.7395 87° East 603 694 34,000  Level FlightAware Transoceanic
Wed 12:51:00 PM 41.0363 170.9244 87° East 603 694 34,000  Level FlightAware Transoceanic
Wed 12:52:00 PM 41.0427 171.1094 87° East 603 694 34,000 500 Level FlightAware Transoceanic
Wed 12:53:00 PM 41.0448 171.2863 88° East 538 619 35,000 500 Climbing FlightAware Transoceanic
Wed 12:54:00 PM 41.0510 171.4842 88° East 538 619 35,000  Level FlightAware Transoceanic
Wed 12:55:00 PM 41.0570 171.6821 88° East 538 619 35,000  Level FlightAware Transoceanic
Wed 12:56:00 PM 41.0626 171.8800 88° East 538 619 35,000  Level FlightAware Transoceanic
Wed 12:57:00 PM 41.0678 172.0780 88° East 538 619 35,000  Level FlightAware Transoceanic
Wed 12:58:00 PM 41.0728 172.2760 88° East 538 619 35,000  Level FlightAware Transoceanic
Wed 12:59:00 PM 41.0773 172.4740 88° East 538 619 35,000  Level FlightAware Transoceanic
Wed 01:00:00 PM 41.0816 172.6720 88° East 538 619 35,000  Level FlightAware Transoceanic
Wed 01:01:00 PM 41.0855 172.8701 89° East 538 619 35,000  Level FlightAware Transoceanic
Wed 01:01:11 PM 41.0833 172.8167 89° East 512 589 35,000  Level Oakland Oceanic (ODAPS)
Wed 01:02:00 PM 41.0891 173.0682 89° East 538 619 35,000  Level FlightAware Transoceanic
Wed 01:03:00 PM 41.0923 173.2663 89° East 538 619 35,000  Level FlightAware Transoceanic
Wed 01:04:00 PM 41.0952 173.4645 89° East 538 619 35,000  Level FlightAware Transoceanic
Wed 01:05:00 PM 41.0977 173.6626 89° East 538 619 35,000  Level FlightAware Transoceanic
Wed 01:06:00 PM 41.0999 173.8608 89° East 538 619 35,000  Level FlightAware Transoceanic
Wed 01:07:00 PM 41.0999 173.9514 89° East 512 589 35,000  Level FlightAware Transoceanic
Wed 01:08:00 PM 41.1015 174.1405 89° East 512 589 35,000  Level FlightAware Transoceanic
Wed 01:09:00 PM 41.1029 174.3297 90° East 512 589 35,000  Level FlightAware Transoceanic
Wed 01:10:00 PM 41.1040 174.5188 90° East 512 589 35,000  Level FlightAware Transoceanic
Wed 01:11:00 PM 41.1047 174.7080 90° East 512 589 35,000  Level FlightAware Transoceanic
Wed 01:12:00 PM 41.1051 174.8972 90° East 512 589 35,000  Level FlightAware Transoceanic
Wed 01:13:00 PM 41.1053 175.0864 90° East 512 589 35,000  Level FlightAware Transoceanic
Wed 01:14:00 PM 41.1051 175.2756 90° East 512 589 35,000  Level FlightAware Transoceanic
Wed 01:15:00 PM 41.1046 175.4648 90° East 512 589 35,000  Level FlightAware Transoceanic
Wed 01:15:03 PM 41.1000 175.3833 90° East 507 583 35,000  Level Oakland Oceanic (ODAPS)
Wed 01:16:00 PM 41.1038 175.6540 90° East 512 589 35,000  Level FlightAware Transoceanic
Wed 01:17:00 PM 41.1027 175.8431 91° East 512 589 35,000  Level FlightAware Transoceanic
Wed 01:18:00 PM 41.1012 176.0323 91° East 512 589 35,000  Level FlightAware Transoceanic
Wed 01:19:00 PM 41.0995 176.2215 91° East 512 589 35,000  Level FlightAware Transoceanic
Wed 01:20:00 PM 41.0975 176.4106 91° East 512 589 35,000  Level FlightAware Transoceanic
Wed 01:21:00 PM 41.0928 176.4924 91° East 507 583 35,000  Level FlightAware Transoceanic
Wed 01:22:00 PM 41.0906 176.6772 91° East 507 583 35,000  Level FlightAware Transoceanic
Wed 01:23:00 PM 41.0881 176.8620 91° East 507 583 35,000  Level FlightAware Transoceanic
Wed 01:24:00 PM 41.0852 177.0468 91° East 507 583 35,000  Level FlightAware Transoceanic
Wed 01:25:00 PM 41.0821 177.2316 91° East 507 583 35,000  Level FlightAware Transoceanic
Wed 01:26:00 PM 41.0787 177.4163 91° East 507 583 35,000  Level FlightAware Transoceanic
Wed 01:27:00 PM 41.0750 177.6011 92° East 507 583 35,000  Level FlightAware Transoceanic
Wed 01:28:00 PM 41.0710 177.7858 92° East 507 583 35,000  Level FlightAware Transoceanic
Wed 01:28:56 PM 41.0667 177.9500 92° East 502 578 35,000  Level Oakland Oceanic (ODAPS)
Wed 01:29:00 PM 41.0667 177.9705 92° East 507 583 35,000  Level FlightAware Transoceanic
Wed 01:30:00 PM 41.0621 178.1551 92° East 507 583 35,000  Level FlightAware Transoceanic
Wed 01:31:00 PM 41.0572 178.3398 92° East 507 583 35,000  Level FlightAware Transoceanic
Wed 01:32:00 PM 41.0520 178.5244 92° East 507 583 35,000  Level FlightAware Transoceanic
Wed 01:33:00 PM 41.0466 178.7089 92° East 507 583 35,000  Level FlightAware Transoceanic
Wed 01:34:00 PM 41.0408 178.8935 92° East 507 583 35,000  Level FlightAware Transoceanic
Wed 01:35:00 PM 41.0348 179.0687 93° East 502 578 35,000  Level FlightAware Transoceanic
Wed 01:36:00 PM 41.0284 179.2550 93° East 502 578 35,000  Level FlightAware Transoceanic
Wed 01:37:00 PM 41.0218 179.4413 93° East 502 578 35,000  Level FlightAware Transoceanic
Wed 01:38:00 PM 41.0148 179.6276 93° East 502 578 35,000  Level FlightAware Transoceanic
Wed 01:39:00 PM 41.0076 179.8138 93° East 502 578 35,000  Level FlightAware Transoceanic
Wed 01:39:57 PM 41.0000 180.0000 87° East 507 583 35,000  Level Oakland Oceanic (ODAPS)
Wed 01:40:00 PM 41.0000 -180.0000 87° East 502 578 35,000  Level FlightAware Transoceanic
Wed 01:41:00 PM 41.0079 -179.8152 87° East 502 578 35,000  Level FlightAware Transoceanic
Wed 01:42:00 PM 41.0154 -179.6304 87° East 502 578 35,000  Level FlightAware Transoceanic
Wed 01:42:48 PM 41.0167 -179.4667 87° East 511 588 35,000  Level Oakland Oceanic (ODAPS)
Wed 01:43:00 PM 41.0227 -179.4455 87° East 502 578 35,000  Level FlightAware Transoceanic
Wed 01:44:00 PM 41.0297 -179.2605 87° East 502 578 35,000  Level FlightAware Transoceanic
Wed 01:45:00 PM 41.0363 -179.0756 87° East 502 578 35,000  Level FlightAware Transoceanic
Wed 01:46:00 PM 41.0434 -178.8696 87° East 507 583 35,000  Level FlightAware Transoceanic
Wed 01:47:00 PM 41.0496 -178.6811 88° East 507 583 35,000  Level FlightAware Transoceanic
Wed 01:48:00 PM 41.0499 -178.5211 88° East 511 588 35,000  Level FlightAware Transoceanic
Wed 01:49:00 PM 41.0556 -178.3319 88° East 511 588 35,000  Level FlightAware Transoceanic
Wed 01:50:00 PM 41.0610 -178.1427 88° East 511 588 35,000  Level FlightAware Transoceanic
Wed 01:51:00 PM 41.0661 -177.9534 88° East 511 588 35,000  Level FlightAware Transoceanic
Wed 01:52:00 PM 41.0709 -177.7641 88° East 511 588 35,000  Level FlightAware Transoceanic
Wed 01:53:00 PM 41.0754 -177.5747 88° East 511 588 35,000  Level FlightAware Transoceanic
Wed 01:54:00 PM 41.0795 -177.3854 88° East 511 588 35,000  Level FlightAware Transoceanic
Wed 01:55:00 PM 41.0834 -177.1960 89° East 511 588 35,000  Level FlightAware Transoceanic
Wed 01:56:00 PM 41.0869 -177.0066 89° East 511 588 35,000  Level FlightAware Transoceanic
Wed 01:56:47 PM 41.1000 -176.8500 89° East 512 589 35,000  Level Oakland Oceanic (ODAPS)
Wed 01:57:00 PM 41.0902 -176.8172 89° East 511 588 35,000  Level FlightAware Transoceanic
Wed 01:58:00 PM 41.0931 -176.6277 89° East 511 588 35,000  Level FlightAware Transoceanic
Wed 01:59:00 PM 41.0957 -176.4383 89° East 511 588 35,000  Level FlightAware Transoceanic
Wed 02:00:00 PM 41.0980 -176.2488 89° East 511 588 35,000  Level FlightAware Transoceanic
Wed 02:01:00 PM 41.1000 -176.0593 89° East 511 588 35,000  Level FlightAware Transoceanic
Wed 02:02:00 PM 41.1104 -175.8980 89° East 512 589 35,000  Level FlightAware Transoceanic
Wed 02:03:00 PM 41.1115 -175.7075 90° East 512 589 35,000  Level FlightAware Transoceanic
Wed 02:04:00 PM 41.1124 -175.5171 90° East 512 589 35,000  Level FlightAware Transoceanic
Wed 02:05:00 PM 41.1129 -175.3266 90° East 512 589 35,000  Level FlightAware Transoceanic
Wed 02:06:00 PM 41.1131 -175.1362 90° East 512 589 35,000  Level FlightAware Transoceanic
Wed 02:07:00 PM 41.1129 -174.9458 90° East 512 589 35,000  Level FlightAware Transoceanic
Wed 02:08:00 PM 41.1125 -174.7553 90° East 512 589 35,000  Level FlightAware Transoceanic
Wed 02:09:00 PM 41.1118 -174.5649 90° East 512 589 35,000  Level FlightAware Transoceanic
Wed 02:10:00 PM 41.1107 -174.3744 90° East 512 589 35,000  Level FlightAware Transoceanic
Wed 02:10:39 PM 41.1000 -174.2167 90° East 515 593 35,000  Level Oakland Oceanic (ODAPS)
Wed 02:11:00 PM 41.1093 -174.1840 91° East 512 589 35,000  Level FlightAware Transoceanic
Wed 02:12:00 PM 41.1077 -173.9936 91° East 512 589 35,000  Level FlightAware Transoceanic
Wed 02:13:00 PM 41.1057 -173.8032 91° East 512 589 35,000  Level FlightAware Transoceanic
Wed 02:14:00 PM 41.1034 -173.6128 91° East 512 589 35,000  Level FlightAware Transoceanic
Wed 02:15:00 PM 41.1007 -173.4224 91° East 512 589 35,000  Level FlightAware Transoceanic
Wed 02:16:00 PM 41.0887 -173.1156 91° East 515 593 35,000  Level FlightAware Transoceanic
Wed 02:17:00 PM 41.0858 -172.9321 91° East 515 593 35,000  Level FlightAware Transoceanic
Wed 02:18:00 PM 41.0827 -172.7487 91° East 515 593 35,000  Level FlightAware Transoceanic
Wed 02:19:00 PM 41.0792 -172.5652 92° East 515 593 35,000  Level FlightAware Transoceanic
Wed 02:20:00 PM 41.0754 -172.3818 92° East 515 593 35,000  Level FlightAware Transoceanic
Wed 02:21:00 PM 41.0714 -172.1984 92° East 515 593 35,000  Level FlightAware Transoceanic
Wed 02:22:00 PM 41.0670 -172.0150 92° East 515 593 35,000  Level FlightAware Transoceanic
Wed 02:23:00 PM 41.0624 -171.8317 92° East 515 593 35,000  Level FlightAware Transoceanic
Wed 02:24:00 PM 41.0574 -171.6484 92° East 515 593 35,000  Level FlightAware Transoceanic
Wed 02:24:30 PM 41.0500 -171.6000 92° East 513 590 35,000  Level Oakland Oceanic (ODAPS)
Wed 02:25:00 PM 41.0522 -171.4651 92° East 515 593 35,000  Level FlightAware Transoceanic
Wed 02:26:00 PM 41.0467 -171.2818 92° East 515 593 35,000  Level FlightAware Transoceanic
Wed 02:27:00 PM 41.0409 -171.0986 92° East 515 593 35,000  Level FlightAware Transoceanic
Wed 02:28:00 PM 41.0348 -170.9154 93° East 515 593 35,000  Level FlightAware Transoceanic
Wed 02:29:00 PM 41.0284 -170.7323 93° East 515 593 35,000  Level FlightAware Transoceanic
Wed 02:30:00 PM 41.0191 -170.5331 93° East 513 590 35,000  Level FlightAware Transoceanic
Wed 02:31:00 PM 41.0130 -170.3553 93° East 513 590 35,000  Level FlightAware Transoceanic
Wed 02:32:00 PM 41.0066 -170.1776 93° East 513 590 35,000  Level FlightAware Transoceanic
Wed 02:32:59 PM 41.0000 -170.0000 87° East 517 595 35,000  Level Oakland Oceanic (ODAPS)
Wed 02:33:00 PM 41.0000 -170.0000 87° East 513 590 35,000  Level FlightAware Transoceanic
Wed 02:34:00 PM 41.0081 -169.8081 87° East 513 590 35,000  Level FlightAware Transoceanic
Wed 02:35:00 PM 41.0160 -169.6161 87° East 513 590 35,000  Level FlightAware Transoceanic
Wed 02:36:00 PM 41.0235 -169.4241 87° East 513 590 35,000  Level FlightAware Transoceanic
Wed 02:37:00 PM 41.0307 -169.2321 87° East 513 590 35,000  Level FlightAware Transoceanic
Wed 02:38:00 PM 41.0376 -169.0400 87° East 513 590 35,000  Level FlightAware Transoceanic
Wed 02:38:23 PM 41.0333 -169.0000 87° East 517 595 35,000  Level Oakland Oceanic (ODAPS)
Wed 02:39:00 PM 41.0441 -168.8479 87° East 517 595 35,000  Level FlightAware Transoceanic
Wed 02:40:00 PM 41.0504 -168.6557 88° East 517 595 35,000  Level FlightAware Transoceanic
Wed 02:41:00 PM 41.0563 -168.4635 88° East 517 595 35,000  Level FlightAware Transoceanic
Wed 02:42:00 PM 41.0619 -168.2713 88° East 517 595 35,000  Level FlightAware Transoceanic
Wed 02:43:00 PM 41.0672 -168.0790 88° East 517 595 35,000  Level FlightAware Transoceanic
Wed 02:44:00 PM 41.0675 -167.8758 88° East 517 595 35,000  Level FlightAware Transoceanic
Wed 02:45:00 PM 41.0721 -167.6883 88° East 517 595 35,000  Level FlightAware Transoceanic
Wed 02:46:00 PM 41.0764 -167.5009 88° East 517 595 35,000  Level FlightAware Transoceanic
Wed 02:47:00 PM 41.0805 -167.3133 88° East 517 595 35,000  Level FlightAware Transoceanic
Wed 02:48:00 PM 41.0842 -167.1258 89° East 517 595 35,000  Level FlightAware Transoceanic
Wed 02:49:00 PM 41.0876 -166.9382 89° East 517 595 35,000  Level FlightAware Transoceanic
Wed 02:50:00 PM 41.0907 -166.7506 89° East 517 595 35,000  Level FlightAware Transoceanic
Wed 02:51:00 PM 41.0935 -166.5630 89° East 517 595 35,000  Level FlightAware Transoceanic
Wed 02:52:00 PM 41.0960 -166.3754 89° East 517 595 35,000  Level FlightAware Transoceanic
Wed 02:52:15 PM 41.1000 -166.3500 89° East 525 604 35,000  Level Oakland Oceanic (ODAPS)
Wed 02:53:00 PM 41.0982 -166.1878 89° East 517 595 35,000  Level FlightAware Transoceanic
Wed 02:54:00 PM 41.1001 -166.0002 89° East 517 595 35,000  Level FlightAware Transoceanic
Wed 02:55:00 PM 41.1017 -165.8125 89° East 517 595 35,000  Level FlightAware Transoceanic
Wed 02:56:00 PM 41.1030 -165.6249 90° East 517 595 35,000  Level FlightAware Transoceanic
Wed 02:57:00 PM 41.1040 -165.4372 90° East 517 595 35,000  Level FlightAware Transoceanic
Wed 02:58:00 PM 41.1078 -165.1945 90° East 525 604 35,000  Level FlightAware Transoceanic
Wed 02:59:00 PM 41.1079 -165.0020 90° East 525 604 35,000  Level FlightAware Transoceanic
Wed 03:00:00 PM 41.1078 -164.8094 90° East 525 604 35,000  Level FlightAware Transoceanic
Wed 03:01:00 PM 41.1073 -164.6168 90° East 525 604 35,000  Level FlightAware Transoceanic
Wed 03:02:00 PM 41.1065 -164.4242 90° East 525 604 35,000  Level FlightAware Transoceanic
Wed 03:03:00 PM 41.1054 -164.2316 91° East 525 604 35,000  Level FlightAware Transoceanic
Wed 03:04:00 PM 41.1040 -164.0390 91° East 525 604 35,000  Level FlightAware Transoceanic
Wed 03:05:00 PM 41.1022 -163.8465 91° East 525 604 35,000  Level FlightAware Transoceanic
Wed 03:06:00 PM 41.1002 -163.6539 91° East 525 604 35,000  Level FlightAware Transoceanic
Wed 03:06:07 PM 41.1000 -163.6833 91° East 527 606 35,000  Level Oakland Oceanic (ODAPS)
Wed 03:07:00 PM 41.0978 -163.4614 91° East 525 604 35,000  Level FlightAware Transoceanic
Wed 03:08:00 PM 41.0951 -163.2688 91° East 525 604 35,000  Level FlightAware Transoceanic
Wed 03:09:00 PM 41.0920 -163.0763 91° East 525 604 35,000  Level FlightAware Transoceanic
Wed 03:10:00 PM 41.0887 -162.8838 91° East 525 604 35,000  Level FlightAware Transoceanic
Wed 03:11:00 PM 41.0850 -162.6914 92° East 525 604 35,000  Level FlightAware Transoceanic
Wed 03:12:00 PM 41.0811 -162.5190 92° East 527 606 35,000  Level FlightAware Transoceanic
Wed 03:13:00 PM 41.0768 -162.3251 92° East 527 606 35,000  Level FlightAware Transoceanic
Wed 03:14:00 PM 41.0722 -162.1311 92° East 527 606 35,000  Level FlightAware Transoceanic
Wed 03:15:00 PM 41.0672 -161.9372 92° East 527 606 35,000  Level FlightAware Transoceanic
Wed 03:16:00 PM 41.0620 -161.7433 92° East 527 606 35,000  Level FlightAware Transoceanic
Wed 03:17:00 PM 41.0564 -161.5495 92° East 527 606 35,000  Level FlightAware Transoceanic
Wed 03:18:00 PM 41.0505 -161.3557 92° East 527 606 35,000  Level FlightAware Transoceanic
Wed 03:19:00 PM 41.0443 -161.1619 93° East 527 606 35,000  Level FlightAware Transoceanic
Wed 03:19:59 PM 41.0333 -160.9667 92° East 541 623 35,000  Level Oakland Oceanic (ODAPS)
Wed 03:20:00 PM 41.0377 -160.9681 93° East 527 606 35,000  Level FlightAware Transoceanic
Wed 03:21:00 PM 41.0308 -160.7744 93° East 527 606 35,000  Level FlightAware Transoceanic
Wed 03:22:00 PM 41.0236 -160.5807 93° East 527 606 35,000  Level FlightAware Transoceanic
Wed 03:23:00 PM 41.0160 -160.3871 93° East 527 606 35,000  Level FlightAware Transoceanic
Wed 03:24:00 PM 41.0082 -160.1935 93° East 527 606 35,000  Level FlightAware Transoceanic
Wed 03:24:49 PM 41.0000 -160.0000 79° East 542 624 35,000  Level Oakland Oceanic (ODAPS)
Wed 03:25:00 PM 41.0000 -160.0000 79° East 527 606 35,000  Level FlightAware Transoceanic
Wed 03:26:00 PM 41.0290 -159.7994 79° East 541 623 35,000  Level FlightAware Transoceanic
Wed 03:27:00 PM 41.0576 -159.5986 79° East 541 623 35,000  Level FlightAware Transoceanic
Wed 03:28:00 PM 41.0859 -159.3977 79° East 541 623 35,000  Level FlightAware Transoceanic
Wed 03:29:00 PM 41.1138 -159.1965 80° East 541 623 35,000  Level FlightAware Transoceanic
Wed 03:30:00 PM 41.1414 -158.9952 80° East 541 623 35,000  Level FlightAware Transoceanic
Wed 03:31:00 PM 41.1654 -158.8180 80° East 542 624 35,000  Level FlightAware Transoceanic
Wed 03:32:00 PM 41.1918 -158.6204 80° East 542 624 35,000  Level FlightAware Transoceanic
Wed 03:33:00 PM 41.2178 -158.4227 80° East 542 624 35,000 1,081 Level FlightAware Transoceanic
Wed 03:33:51 PM 41.2333 -158.2500 80° East 536 617 37,000  Climbing Oakland Oceanic (ODAPS)
Wed 03:34:00 PM 41.2435 -158.2248 80° East 542 624 35,000 -1,739 Descending FlightAware Transoceanic
Wed 03:35:00 PM 41.2689 -158.0267 80° East 542 624 35,000  Level FlightAware Transoceanic
Wed 03:36:00 PM 41.2939 -157.8285 81° East 542 624 35,000  Level FlightAware Transoceanic
Wed 03:37:00 PM 41.3186 -157.6302 81° East 542 624 35,000  Level FlightAware Transoceanic
Wed 03:38:00 PM 41.3430 -157.4317 81° East 542 624 35,000  Level FlightAware Transoceanic
Wed 03:39:00 PM 41.3670 -157.2330 81° East 542 624 35,000 1,000 Level FlightAware Transoceanic
Wed 03:40:00 PM 41.3788 -157.0845 81° East 536 617 37,000 1,000 Climbing FlightAware Transoceanic
Wed 03:41:00 PM 41.4019 -156.8897 81° East 536 617 37,000  Level FlightAware Transoceanic
Wed 03:42:00 PM 41.4246 -156.6948 81° East 536 617 37,000  Level FlightAware Transoceanic
Wed 03:43:00 PM 41.4471 -156.4998 81° East 536 617 37,000  Level FlightAware Transoceanic
Wed 03:44:00 PM 41.4692 -156.3046 81° East 536 617 37,000  Level FlightAware Transoceanic
Wed 03:45:00 PM 41.4910 -156.1093 82° East 536 617 37,000  Level FlightAware Transoceanic
Wed 03:46:00 PM 41.5124 -155.9139 82° East 536 617 37,000  Level FlightAware Transoceanic
Wed 03:47:00 PM 41.5335 -155.7184 82° East 536 617 37,000  Level FlightAware Transoceanic
Wed 03:47:44 PM 41.5500 -155.5833 82° East 522 601 37,000  Level Oakland Oceanic (ODAPS)
Wed 03:48:00 PM 41.5543 -155.5227 82° East 536 617 37,000  Level FlightAware Transoceanic
Wed 03:49:00 PM 41.5747 -155.3269 82° East 536 617 37,000  Level FlightAware Transoceanic
Wed 03:50:00 PM 41.5949 -155.1310 82° East 536 617 37,000  Level FlightAware Transoceanic
Wed 03:51:00 PM 41.6147 -154.9349 82° East 536 617 37,000  Level FlightAware Transoceanic
Wed 03:52:00 PM 41.6341 -154.7388 83° East 536 617 37,000  Level FlightAware Transoceanic
Wed 03:53:00 PM 41.6532 -154.5425 83° East 536 617 37,000  Level FlightAware Transoceanic
Wed 03:54:00 PM 41.6833 -154.2432 83° East 522 601 37,000  Level FlightAware Transoceanic
Wed 03:55:00 PM 41.7011 -154.0513 83° East 522 601 37,000  Level FlightAware Transoceanic
Wed 03:56:00 PM 41.7185 -153.8593 83° East 522 601 37,000  Level FlightAware Transoceanic
Wed 03:57:00 PM 41.7357 -153.6672 83° East 522 601 37,000  Level FlightAware Transoceanic
Wed 03:58:00 PM 41.7525 -153.4750 83° East 522 601 37,000  Level FlightAware Transoceanic
Wed 03:59:00 PM 41.7690 -153.2827 84° East 522 601 37,000  Level FlightAware Transoceanic
Wed 04:00:00 PM 41.7851 -153.0903 84° East 522 601 37,000  Level FlightAware Transoceanic
Wed 04:01:00 PM 41.8010 -152.8978 84° East 522 601 37,000  Level FlightAware Transoceanic
Wed 04:01:35 PM 41.8000 -152.9833 84° East 520 598 37,000  Level Oakland Oceanic (ODAPS)
Wed 04:02:00 PM 41.8165 -152.7052 84° East 522 601 37,000  Level FlightAware Transoceanic
Wed 04:03:00 PM 41.8317 -152.5125 84° East 522 601 37,000  Level FlightAware Transoceanic
Wed 04:04:00 PM 41.8466 -152.3197 84° East 522 601 37,000  Level FlightAware Transoceanic
Wed 04:05:00 PM 41.8612 -152.1268 84° East 522 601 37,000  Level FlightAware Transoceanic
Wed 04:06:00 PM 41.8754 -151.9339 84° East 522 601 37,000  Level FlightAware Transoceanic
Wed 04:07:00 PM 41.8893 -151.7408 85° East 522 601 37,000  Level FlightAware Transoceanic
Wed 04:08:00 PM 41.8970 -151.6804 85° East 520 598 37,000  Level FlightAware Transoceanic
Wed 04:09:00 PM 41.9096 -151.4940 85° East 520 598 37,000  Level FlightAware Transoceanic
Wed 04:10:00 PM 41.9220 -151.3075 85° East 520 598 37,000  Level FlightAware Transoceanic
Wed 04:11:00 PM 41.9341 -151.1209 85° East 520 598 37,000  Level FlightAware Transoceanic
Wed 04:12:00 PM 41.9458 -150.9342 85° East 520 598 37,000  Level FlightAware Transoceanic
Wed 04:13:00 PM 41.9572 -150.7475 85° East 520 598 37,000  Level FlightAware Transoceanic
Wed 04:14:00 PM 41.9684 -150.5607 85° East 520 598 37,000  Level FlightAware Transoceanic
Wed 04:15:00 PM 41.9792 -150.3739 86° East 520 598 37,000  Level FlightAware Transoceanic
Wed 04:15:31 PM 41.9833 -150.3000 86° East 519 597 37,000  Level Oakland Oceanic (ODAPS)
Wed 04:16:00 PM 41.9898 -150.1870 86° East 520 598 37,000  Level FlightAware Transoceanic
Wed 04:16:54 PM 42.0000 -150.0000 87° East 531 611 37,000  Level Oakland Oceanic (ODAPS)
Wed 04:17:00 PM 42.0000 -150.0000 87° East 520 598 37,000  Level FlightAware Transoceanic
Wed 04:18:00 PM 42.0083 -149.8043 87° East 520 598 37,000  Level FlightAware Transoceanic
Wed 04:19:00 PM 42.0164 -149.6086 87° East 520 598 37,000  Level FlightAware Transoceanic
Wed 04:20:00 PM 42.0240 -149.4129 87° East 520 598 37,000  Level FlightAware Transoceanic
Wed 04:21:00 PM 42.0314 -149.2171 87° East 519 597 37,000  Level FlightAware Transoceanic
Wed 04:22:00 PM 42.0384 -149.0212 87° East 519 597 37,000  Level FlightAware Transoceanic
Wed 04:23:00 PM 42.0459 -148.8018 87° East 531 611 37,000  Level FlightAware Transoceanic
Wed 04:24:00 PM 42.0523 -148.6020 88° East 531 611 37,000  Level FlightAware Transoceanic
Wed 04:25:00 PM 42.0584 -148.4021 88° East 531 611 37,000  Level FlightAware Transoceanic
Wed 04:26:00 PM 42.0641 -148.2021 88° East 531 611 37,000  Level FlightAware Transoceanic
Wed 04:27:00 PM 42.0695 -148.0022 88° East 531 611 37,000  Level FlightAware Transoceanic
Wed 04:28:00 PM 42.0746 -147.8022 88° East 531 611 37,000  Level FlightAware Transoceanic
Wed 04:29:00 PM 42.0792 -147.6022 88° East 531 611 37,000  Level FlightAware Transoceanic
Wed 04:29:14 PM 42.0833 -147.5833 88° East 534 615 37,000  Level Oakland Oceanic (ODAPS)
Wed 04:30:00 PM 42.0836 -147.4021 88° East 531 611 37,000  Level FlightAware Transoceanic
Wed 04:31:00 PM 42.0876 -147.2020 89° East 531 611 37,000  Level FlightAware Transoceanic
Wed 04:32:00 PM 42.0912 -147.0019 89° East 531 611 37,000  Level FlightAware Transoceanic
Wed 04:33:00 PM 42.0946 -146.8018 89° East 531 611 37,000  Level FlightAware Transoceanic
Wed 04:34:00 PM 42.0975 -146.6016 89° East 531 611 37,000  Level FlightAware Transoceanic
Wed 04:35:00 PM 42.1034 -146.3855 89° East 534 615 37,000  Level FlightAware Transoceanic
Wed 04:36:00 PM 42.1055 -146.1859 89° East 534 615 37,000  Level FlightAware Transoceanic
Wed 04:37:00 PM 42.1073 -145.9861 89° East 534 615 37,000  Level FlightAware Transoceanic
Wed 04:38:00 PM 42.1088 -145.7864 90° East 534 615 37,000  Level FlightAware Transoceanic
Wed 04:39:00 PM 42.1099 -145.5867 90° East 534 615 37,000  Level FlightAware Transoceanic
Wed 04:40:00 PM 42.1106 -145.3870 90° East 534 615 37,000  Level FlightAware Transoceanic
Wed 04:41:00 PM 42.1110 -145.1872 90° East 534 615 37,000  Level FlightAware Transoceanic
Wed 04:42:00 PM 42.1111 -144.9875 90° East 534 615 37,000  Level FlightAware Transoceanic
Wed 04:43:00 PM 42.1108 -144.7878 90° East 534 615 37,000  Level FlightAware Transoceanic
Wed 04:43:07 PM 42.1167 -144.8333 90° East 535 616 37,000  Level Oakland Oceanic (ODAPS)
Wed 04:44:00 PM 42.1101 -144.5880 90° East 534 615 37,000  Level FlightAware Transoceanic
Wed 04:45:00 PM 42.1091 -144.3883 90° East 534 615 37,000  Level FlightAware Transoceanic
Wed 04:46:00 PM 42.1078 -144.1886 91° East 534 615 37,000  Level FlightAware Transoceanic
Wed 04:47:00 PM 42.1061 -143.9889 91° East 534 615 37,000  Level FlightAware Transoceanic
Wed 04:48:00 PM 42.1041 -143.7892 91° East 534 615 37,000  Level FlightAware Transoceanic
Wed 04:49:00 PM 42.1065 -143.6236 91° East 535 616 37,000  Level FlightAware Transoceanic
Wed 04:50:00 PM 42.1036 -143.4220 91° East 535 616 37,000  Level FlightAware Transoceanic
Wed 04:51:00 PM 42.1003 -143.2204 91° East 535 616 37,000  Level FlightAware Transoceanic
Wed 04:52:00 PM 42.0967 -143.0189 91° East 535 616 37,000  Level FlightAware Transoceanic
Wed 04:53:00 PM 42.0927 -142.8174 92° East 535 616 37,000  Level FlightAware Transoceanic
Wed 04:54:00 PM 42.0884 -142.6159 92° East 535 616 37,000  Level FlightAware Transoceanic
Wed 04:55:00 PM 42.0837 -142.4144 92° East 535 616 37,000  Level FlightAware Transoceanic
Wed 04:56:00 PM 42.0787 -142.2130 92° East 535 616 37,000  Level FlightAware Transoceanic
Wed 04:56:59 PM 42.0667 -142.1000 92° East 520 598 37,000  Level Oakland Oceanic (ODAPS)
Wed 04:57:00 PM 42.0733 -142.0116 92° East 535 616 37,000  Level FlightAware Transoceanic
Wed 04:58:00 PM 42.0675 -141.8103 92° East 535 616 37,000  Level FlightAware Transoceanic
Wed 04:59:00 PM 42.0614 -141.6089 92° East 535 616 37,000  Level FlightAware Transoceanic
Wed 05:00:00 PM 42.0550 -141.4077 93° East 535 616 37,000  Level FlightAware Transoceanic
Wed 05:01:00 PM 42.0482 -141.2064 93° East 535 616 37,000  Level FlightAware Transoceanic
Wed 05:02:00 PM 42.0410 -141.0052 93° East 535 616 37,000  Level FlightAware Transoceanic
Wed 05:03:00 PM 42.0350 -140.9540 93° East 520 598 37,000  Level FlightAware Transoceanic
Wed 05:04:00 PM 42.0287 -140.7631 93° East 520 598 37,000  Level FlightAware Transoceanic
Wed 05:05:00 PM 42.0220 -140.5723 93° East 520 598 37,000  Level FlightAware Transoceanic
Wed 05:06:00 PM 42.0150 -140.3815 93° East 520 598 37,000  Level FlightAware Transoceanic
Wed 05:07:00 PM 42.0076 -140.1907 93° East 520 598 37,000  Level FlightAware Transoceanic
Wed 05:07:59 PM 42.0000 -140.0000 94° East 514 592 37,000  Level Oakland Oceanic (ODAPS)
Wed 05:08:00 PM 42.0000 -140.0000 94° East 520 598 37,000  Level FlightAware Transoceanic
Wed 05:09:00 PM 41.9892 -139.8088 94° East 520 598 37,000  Level FlightAware Transoceanic
Wed 05:10:00 PM 41.9782 -139.6177 95° East 520 598 37,000  Level FlightAware Transoceanic
Wed 05:10:59 PM 41.9667 -139.4500 95° East 508 585 37,000  Level Oakland Oceanic (ODAPS)
Wed 05:11:00 PM 41.9668 -139.4267 95° East 520 598 37,000  Level FlightAware Transoceanic
Wed 05:12:00 PM 41.9551 -139.2357 95° East 520 598 37,000  Level FlightAware Transoceanic
Wed 05:13:00 PM 41.9430 -139.0448 95° East 520 598 37,000  Level FlightAware Transoceanic
Wed 05:14:00 PM 41.9307 -138.8540 95° East 514 592 37,000  Level FlightAware Transoceanic
Wed 05:15:00 PM 41.9180 -138.6633 95° East 514 592 37,000  Level FlightAware Transoceanic
Wed 05:16:00 PM 41.9050 -138.4726 95° East 514 592 37,000  Level FlightAware Transoceanic
Wed 05:17:00 PM 41.8919 -138.3025 95° East 508 585 37,000  Level FlightAware Transoceanic
Wed 05:18:00 PM 41.8783 -138.1115 96° East 508 585 37,000  Level FlightAware Transoceanic
Wed 05:19:00 PM 41.8644 -137.9206 96° East 508 585 37,000  Level FlightAware Transoceanic
Wed 05:20:00 PM 41.8502 -137.7298 96° East 508 585 37,000  Level FlightAware Transoceanic
Wed 05:21:00 PM 41.8357 -137.5391 96° East 508 585 37,000  Level FlightAware Transoceanic
Wed 05:22:00 PM 41.8208 -137.3484 96° East 508 585 37,000  Level FlightAware Transoceanic
Wed 05:23:00 PM 41.8057 -137.1579 96° East 508 585 37,000  Level FlightAware Transoceanic
Wed 05:24:00 PM 41.7902 -136.9674 96° East 508 585 37,000  Level FlightAware Transoceanic
Wed 05:24:43 PM 41.7833 -136.8500 96° East 509 586 37,000  Level Oakland Oceanic (ODAPS)
Wed 05:25:00 PM 41.7744 -136.7771 96° East 508 585 37,000  Level FlightAware Transoceanic
Wed 05:26:00 PM 41.7583 -136.5868 97° East 508 585 37,000  Level FlightAware Transoceanic
Wed 05:27:00 PM 41.7419 -136.3966 97° East 508 585 37,000  Level FlightAware Transoceanic
Wed 05:27:41 PM 41.7333 -136.3167 97° East 510 587 37,000  Level Oakland Oceanic (ODAPS)
Wed 05:28:00 PM 41.7252 -136.2065 97° East 508 585 37,000  Level FlightAware Transoceanic
Wed 05:29:00 PM 41.7081 -136.0166 97° East 508 585 37,000  Level FlightAware Transoceanic
Wed 05:30:00 PM 41.6990 -135.8893 97° East 509 586 37,000  Level FlightAware Transoceanic
Wed 05:31:00 PM 41.6812 -135.6975 97° East 509 586 37,000  Level FlightAware Transoceanic
Wed 05:32:00 PM 41.6630 -135.5057 97° East 509 586 37,000  Level FlightAware Transoceanic
Wed 05:33:00 PM 41.6292 -135.1921 97° East 510 587 37,000  Level FlightAware Transoceanic
Wed 05:34:00 PM 41.6107 -135.0050 98° East 510 587 37,000  Level FlightAware Transoceanic
Wed 05:35:00 PM 41.5920 -134.8181 98° East 510 587 37,000  Level FlightAware Transoceanic
Wed 05:36:00 PM 41.5730 -134.6312 98° East 510 587 37,000  Level FlightAware Transoceanic
Wed 05:37:00 PM 41.5536 -134.4445 98° East 510 587 37,000  Level FlightAware Transoceanic
Wed 05:38:00 PM 41.5340 -134.2578 98° East 510 587 37,000  Level FlightAware Transoceanic
Wed 05:38:37 PM 41.5333 -134.2500 98° East 506 582 37,000  Level Oakland Oceanic (ODAPS)
Wed 05:39:00 PM 41.5141 -134.0713 98° East 510 587 37,000  Level FlightAware Transoceanic
Wed 05:40:00 PM 41.4938 -133.8849 98° East 510 587 37,000  Level FlightAware Transoceanic
Wed 05:41:00 PM 41.4733 -133.6986 98° East 510 587 37,000  Level FlightAware Transoceanic
Wed 05:42:00 PM 41.4524 -133.5125 99° East 510 587 37,000  Level FlightAware Transoceanic
Wed 05:43:00 PM 41.4313 -133.3264 99° East 510 587 37,000  Level FlightAware Transoceanic
Wed 05:44:00 PM 41.4147 -133.1811 99° East 506 582 37,000  Level FlightAware Transoceanic
Wed 05:45:00 PM 41.3940 -133.0034 99° East 506 582 37,000  Level FlightAware Transoceanic
Wed 05:46:00 PM 41.3730 -132.8257 99° East 506 582 37,000  Level FlightAware Transoceanic
Wed 05:47:00 PM 41.3517 -132.6482 99° East 506 582 37,000  Level FlightAware Transoceanic
Wed 05:48:00 PM 41.3301 -132.4708 99° East 506 582 37,000  Level FlightAware Transoceanic
Wed 05:49:00 PM 41.3083 -132.2935 99° East 506 582 37,000  Level FlightAware Transoceanic
Wed 05:50:00 PM 41.2862 -132.1163 99° East 506 582 37,000  Level FlightAware Transoceanic
Wed 05:51:00 PM 41.2638 -131.9393 100° East 506 582 37,000  Level FlightAware Transoceanic
Wed 05:52:00 PM 41.2412 -131.7623 100° East 506 582 37,000  Level FlightAware Transoceanic
Wed 05:52:28 PM 41.2333 -131.6833 100° East 508 585 37,000  Level Oakland Oceanic (ODAPS)
Wed 05:53:00 PM 41.2183 -131.5855 100° East 506 582 37,000  Level FlightAware Transoceanic
Wed 05:54:00 PM 41.1951 -131.4088 100° East 506 582 37,000  Level FlightAware Transoceanic
Wed 05:55:00 PM 41.1717 -131.2323 100° East 506 582 37,000  Level FlightAware Transoceanic
Wed 05:56:00 PM 41.1479 -131.0558 100° East 506 582 37,000  Level FlightAware Transoceanic
Wed 05:57:00 PM 41.1240 -130.8795 100° East 506 582 37,000  Level FlightAware Transoceanic
Wed 05:58:00 PM 41.0963 -130.6719 101° East 508 585 37,000  Level FlightAware Transoceanic
Wed 05:59:00 PM 41.0726 -130.5037 101° East 508 585 37,000  Level FlightAware Transoceanic
Wed 06:00:00 PM 41.0486 -130.3357 101° East 508 585 37,000  Level FlightAware Transoceanic
Wed 06:01:00 PM 41.0244 -130.1678 101° East 508 585 37,000  Level FlightAware Transoceanic
Wed 06:01:42 PM 41.0000 -130.0000 109° East 503 579 37,000  Level Oakland Oceanic (ODAPS)
Wed 06:02:00 PM 41.0000 -130.0000 109° East 508 585 37,000  Level FlightAware Transoceanic
Wed 06:03:00 PM 40.9522 -129.8214 110° East 508 585 37,000  Level FlightAware Transoceanic
Wed 06:04:00 PM 40.9041 -129.6431 110° East 508 585 37,000  Level FlightAware Transoceanic
Wed 06:05:00 PM 40.8557 -129.4651 110° East 508 585 37,000  Level FlightAware Transoceanic
Wed 06:06:00 PM 40.8070 -129.2873 110° East 508 585 37,000  Level FlightAware Transoceanic
Wed 06:06:21 PM 40.7833 -129.2000 110° East 502 578 37,000  Level Oakland Oceanic (ODAPS)
Wed 06:07:00 PM 40.7581 -129.1098 110° East 508 585 37,000  Level FlightAware Transoceanic
Wed 06:08:00 PM 40.7089 -128.9325 110° East 503 579 37,000  Level FlightAware Transoceanic
Wed 06:09:00 PM 40.6594 -128.7555 110° East 503 579 37,000  Level FlightAware Transoceanic
Wed 06:10:00 PM 40.6097 -128.5787 110° East 503 579 37,000  Level FlightAware Transoceanic
Wed 06:11:00 PM 40.5597 -128.4023 111° Southeast 503 579 37,000  Level FlightAware Transoceanic
Wed 06:12:00 PM 40.4962 -128.1795 111° Southeast 502 578 37,000  Level FlightAware Transoceanic
Wed 06:13:00 PM 40.4475 -128.0102 111° Southeast 502 578 37,000  Level FlightAware Transoceanic
Wed 06:14:00 PM 40.3985 -127.8412 111° Southeast 502 578 37,000  Level FlightAware Transoceanic
Wed 06:15:00 PM 40.3493 -127.6725 111° Southeast 502 578 37,000  Level FlightAware Transoceanic
Wed 06:16:00 PM 40.2998 -127.5040 111° Southeast 502 578 37,000 -71 Level FlightAware Transoceanic
Wed 06:16:24 PM 40.2942 -127.4750 110° East 499 574 36,900  Descending Oakland Center
Wed 06:17:00 PM 40.2501 -127.3357 111° Southeast 502 578 37,000 98 Climbing FlightAware Transoceanic
Wed 06:17:25 PM 40.2433 -127.3061 111° Southeast 499 574 37,000  Level Oakland Center
Wed 06:18:00 PM 40.2002 -127.1677 111° Southeast 502 578 37,000  Level FlightAware Transoceanic
Wed 06:18:26 PM 40.1942 -127.1372 111° Southeast 499 574 37,000  Level Oakland Center
Wed 06:19:00 PM 40.1500 -127.0000 110° East 502 578 37,000 -97 Level FlightAware Transoceanic
Wed 06:19:28 PM 40.1464 -126.9700 110° East 498 573 36,900  Descending Oakland Center
Wed 06:20:00 PM 40.1026 -126.8278 110° East 502 578 37,000  Climbing FlightAware Transoceanic
Wed 06:20:29 PM 40.0972 -126.8011 111° Southeast 500 575 36,900  Descending Oakland Center
Wed 06:21:00 PM 40.0550 -126.6557 110° East 502 578 37,000  Climbing FlightAware Transoceanic
Wed 06:21:30 PM 40.0231 -126.6508 123° Southeast 496 571 36,900  Descending Oakland Center
Wed 06:22:32 PM 39.9189 -126.4792 128° Southeast 502 578 37,000 49 Climbing Oakland Center
Wed 06:23:33 PM 39.8344 -126.3364 128° Southeast 501 577 37,000  Level Oakland Center
Wed 06:24:35 PM 39.7486 -126.1944 128° Southeast 501 577 37,000  Level Oakland Center
Wed 06:25:36 PM 39.6639 -126.0528 128° Southeast 499 574 37,000  Level Oakland Center
Wed 06:26:37 PM 39.5786 -125.9108 128° Southeast 501 577 37,000  Level Oakland Center
Wed 06:27:39 PM 39.4931 -125.7692 128° Southeast 502 578 37,000  Level Oakland Center
Wed 06:28:40 PM 39.3950 -125.6081 128° Southeast 500 575 37,000  Level Oakland Center
Wed 06:29:41 PM 39.3075 -125.4672 129° Southeast 503 579 37,000 -49 Level Oakland Center
Wed 06:30:43 PM 39.2222 -125.3253 128° Southeast 502 578 36,900  Descending Oakland Center
Wed 06:31:44 PM 39.1306 -125.1797 129° Southeast 499 574 37,000 49 Climbing Oakland Center
Wed 06:32:46 PM 39.0442 -125.0386 128° Southeast 502 578 37,000  Level Oakland Center
Wed 06:33:47 PM 38.9578 -124.9003 129° Southeast 497 572 37,000  Level Oakland Center
Wed 06:34:48 PM 38.8717 -124.7608 128° Southeast 499 574 37,000 -49 Level Oakland Center
Wed 06:35:50 PM 38.7833 -124.6222 129° Southeast 502 578 36,900  Descending Oakland Center
Wed 06:36:51 PM 38.6969 -124.4839 129° Southeast 499 574 37,000 49 Climbing Oakland Center
Wed 06:37:53 PM 38.5947 -124.3242 129° Southeast 499 574 37,000  Level Oakland Center
Wed 06:38:54 PM 38.5081 -124.1869 129° Southeast 498 573 37,000 -49 Level Oakland Center
Wed 06:39:55 PM 38.4214 -124.0500 129° Southeast 496 571 36,900  Descending Oakland Center
Wed 06:40:57 PM 38.3333 -123.9133 129° Southeast 498 573 37,000  Climbing Oakland Center
Wed 06:41:58 PM 38.2461 -123.7775 129° Southeast 498 573 36,900  Descending Oakland Center
Wed 06:42:59 PM 38.1575 -123.6425 130° Southeast 498 573 37,000  Climbing Oakland Center
Wed 06:44:01 PM 38.0686 -123.5075 130° Southeast 500 575 36,900 -49 Descending Oakland Center
Wed 06:45:02 PM 37.9811 -123.3733 130° Southeast 497 572 36,900 49 Level Oakland Center
Wed 06:46:04 PM 37.8744 -123.2111 130° Southeast 501 577 37,000  Climbing Oakland Center
Wed 06:47:05 PM 37.7875 -123.0786 130° Southeast 495 570 36,900  Descending Oakland Center
Wed 06:48:07 PM 37.6989 -122.9447 130° Southeast 501 577 37,000 49 Climbing Oakland Center
Wed 06:49:08 PM 37.6103 -122.8122 130° Southeast 503 579 37,000  Level Oakland Center
Wed 06:50:09 PM 37.5231 -122.6797 130° Southeast 495 570 37,000 -49 Level Oakland Center
Wed 06:51:11 PM 37.4344 -122.5464 130° Southeast 497 572 36,900 -49 Descending Oakland Center
Wed 06:52:12 PM 37.3272 -122.3869 130° Southeast 498 573 36,900  Level Oakland Center
Wed 06:53:14 PM 37.2383 -122.2544 130° Southeast 500 575 36,900  Level Oakland Center
Wed 06:54:15 PM 37.1497 -122.1239 130° Southeast 492 566 36,900 49 Level Oakland Center
Wed 06:55:16 PM 37.0611 -121.9911 130° Southeast 496 571 37,000  Climbing Oakland Center
Wed 06:56:18 PM 36.9714 -121.8619 131° Southeast 494 568 36,900  Descending Oakland Center
Wed 06:57:19 PM 36.8806 -121.7325 131° Southeast 497 572 37,000 49 Climbing Oakland Center
Wed 06:58:20 PM 36.7769 -121.5817 131° Southeast 491 565 37,000 -49 Level Oakland Center
Wed 06:59:22 PM 36.6875 -121.4494 130° Southeast 495 570 36,900  Descending Oakland Center
Wed 07:00:23 PM 36.5972 -121.3203 131° Southeast 495 570 37,000 49 Climbing Oakland Center
Wed 07:01:24 PM 36.5072 -121.1897 131° Southeast 490 564 37,000 -49 Level Oakland Center
Wed 07:02:26 PM 36.4178 -121.0608 131° Southeast 492 566 36,900  Descending Oakland Center
Wed 07:03:27 PM 36.3269 -120.9314 131° Southeast 495 570 37,000  Climbing Oakland Center
Wed 07:04:28 PM 36.2369 -120.8033 131° Southeast 493 567 36,900  Descending Oakland Center
Wed 07:05:29 PM 36.1458 -120.6750 131° Southeast 493 567 37,000 49 Climbing Oakland Center
Wed 07:06:31 PM 36.0561 -120.5444 130° Southeast 495 570 37,000 -49 Level Oakland Center
Wed 07:07:32 PM 35.9639 -120.4183 132° Southeast 491 565 36,900  Descending Oakland Center
Wed 07:08:33 PM 35.8728 -120.2917 132° Southeast 490 564 37,000  Climbing Oakland Center
Wed 07:09:34 PM 35.7633 -120.1375 131° Southeast 493 567 36,900 -49 Descending Oakland Center
Wed 07:10:36 PM 35.6697 -120.0078 132° Southeast 501 577 36,900 -49 Level Oakland Center
Wed 07:11:37 PM 35.5606 -119.9022 142° Southeast 496 571 36,800 -1,131 Descending Oakland Center
Wed 07:12:38 PM 35.4464 -119.8033 145° Southeast 497 572 34,600 -1,967 Descending Oakland Center
Wed 07:13:39 PM 35.3347 -119.7081 145° Southeast 487 560 32,800 -1,895 Descending Oakland Center
Wed 07:14:13 PM 35.2714 -119.6539 145° Southeast 477 549 31,600 -1,979 Descending Los Angeles Center
Wed 07:15:16 PM 35.1656 -119.5644 145° Southeast 464 534 29,600 -1,920 Descending Los Angeles Center
Wed 07:16:18 PM 35.0647 -119.4767 145° Southeast 449 517 27,600 -1,887 Descending Los Angeles Center
Wed 07:17:20 PM 34.9636 -119.3917 145° Southeast 441 507 25,700 -1,742 Descending Los Angeles Center
Wed 07:18:22 PM 34.8658 -119.3078 145° Southeast 431 496 24,000 -1,645 Descending Los Angeles Center
Wed 07:19:24 PM 34.7714 -119.2278 145° Southeast 417 480 22,300 -1,790 Descending Los Angeles Center
Wed 07:20:26 PM 34.6619 -119.1350 145° Southeast 401 461 20,300 -1,694 Descending Los Angeles Center
Wed 07:21:28 PM 34.5725 -119.0625 146° Southeast 397 457 18,800 -1,452 Descending Los Angeles Center
Wed 07:22:30 PM 34.4872 -118.9906 145° Southeast 376 433 17,300 -1,488 Descending Los Angeles Center
Wed 07:23:33 PM 34.4033 -118.9192 145° Southeast 367 422 15,700 -1,536 Descending Los Angeles Center
Wed 07:24:35 PM 34.3128 -118.8642 153° Southeast 363 418 14,100 -1,584 Descending Los Angeles Center
Wed 07:25:38 PM 34.2008 -118.8231 163° South 352 405 12,400 -1,355 Descending Los Angeles Center
Wed 07:26:39 PM 34.1142 -118.7836 159° South 337 388 11,300 -1,024 Descending Los Angeles Center
Wed 07:27:41 PM 34.0697 -118.6897 120° Southeast 297 342 10,300 -968 Descending Los Angeles Center
Wed 07:28:43 PM 34.0469 -118.5989 107° East 283 326 9,300 -1,065 Descending Los Angeles Center
Wed 07:29:45 PM 34.0244 -118.5128 107° East 273 314 8,100 -1,161 Descending Los Angeles Center
Wed 07:30:47 PM 34.0131 -118.4331 100° East 268 308 6,900 -1,210 Descending Los Angeles Center
Wed 07:31:49 PM 34.0253 -118.3286 82° East 263 303 5,600 -1,248 Descending Los Angeles Center
Wed 07:32:52 PM 34.0333 -118.2492 83° East 247 284 4,300 -1,248 Descending Los Angeles Center
Wed 07:33:54 PM 34.0064 -118.2019 125° Southeast 218 251 3,000 -1,016 Descending Los Angeles Center
Wed 07:34:56 PM 33.9683 -118.2350 216° Southwest 221 254 2,200 -532 Descending Los Angeles Center
Wed 07:35:58 PM 33.9628 -118.2972 264° West 200 230 1,900 -532 Descending Los Angeles Center
Wed 07:37:00 PM 33.9581 -118.3475 264° West 174 200 1,100 -823 Descending Los Angeles Center
Wed 07:38:02 PM 33.9528 -118.4003 263° West 149 171 200 -871 Descending Los Angeles Center
Wed 07:40:00 PM 33.9425 -118.4081 228° Southwest  Level Estimated

Login

Don't have an account? Register now (free) for customized features, flight alerts, and more!